sensor_id;sensor_type;location;lat;lon;timestamp;P1;durP1;ratioP1;P2;durP2;ratioP2
4464;SDS011;2245;48.136;13.428;2023-04-12T00:02:18;4.13;;;2.70;;
4464;SDS011;2245;48.136;13.428;2023-04-12T00:04:45;4.50;;;2.00;;
4464;SDS011;2245;48.136;13.428;2023-04-12T00:07:21;3.50;;;2.50;;
4464;SDS011;2245;48.136;13.428;2023-04-12T00:09:48;8.23;;;2.17;;
4464;SDS011;2245;48.136;13.428;2023-04-12T00:12:16;4.60;;;2.83;;
4464;SDS011;2245;48.136;13.428;2023-04-12T00:14:43;6.50;;;1.90;;
4464;SDS011;2245;48.136;13.428;2023-04-12T00:17:10;2.70;;;1.87;;
4464;SDS011;2245;48.136;13.428;2023-04-12T00:19:37;2.90;;;1.60;;
4464;SDS011;2245;48.136;13.428;2023-04-12T00:22:06;6.10;;;2.30;;
4464;SDS011;2245;48.136;13.428;2023-04-12T00:24:34;3.10;;;1.83;;
4464;SDS011;2245;48.136;13.428;2023-04-12T00:27:03;3.37;;;2.43;;
4464;SDS011;2245;48.136;13.428;2023-04-12T00:29:30;2.87;;;2.27;;
4464;SDS011;2245;48.136;13.428;2023-04-12T00:31:57;6.50;;;3.03;;
4464;SDS011;2245;48.136;13.428;2023-04-12T00:34:25;3.40;;;1.90;;
4464;SDS011;2245;48.136;13.428;2023-04-12T00:36:52;3.53;;;2.47;;
4464;SDS011;2245;48.136;13.428;2023-04-12T00:39:19;3.47;;;2.13;;
4464;SDS011;2245;48.136;13.428;2023-04-12T00:41:48;5.37;;;2.80;;
4464;SDS011;2245;48.136;13.428;2023-04-12T00:44:14;3.53;;;2.23;;
4464;SDS011;2245;48.136;13.428;2023-04-12T00:46:43;2.93;;;2.10;;
4464;SDS011;2245;48.136;13.428;2023-04-12T00:49:10;3.53;;;2.30;;
4464;SDS011;2245;48.136;13.428;2023-04-12T00:51:37;8.93;;;2.93;;
4464;SDS011;2245;48.136;13.428;2023-04-12T00:54:05;6.27;;;3.47;;
4464;SDS011;2245;48.136;13.428;2023-04-12T00:56:32;6.27;;;2.87;;
4464;SDS011;2245;48.136;13.428;2023-04-12T00:59:00;4.07;;;2.00;;
4464;SDS011;2245;48.136;13.428;2023-04-12T01:01:27;5.17;;;2.20;;
4464;SDS011;2245;48.136;13.428;2023-04-12T01:03:56;5.03;;;3.03;;
4464;SDS011;2245;48.136;13.428;2023-04-12T01:06:33;2.23;;;2.03;;
4464;SDS011;2245;48.136;13.428;2023-04-12T01:09:09;4.03;;;2.67;;
4464;SDS011;2245;48.136;13.428;2023-04-12T01:11:43;4.87;;;2.40;;
4464;SDS011;2245;48.136;13.428;2023-04-12T01:14:13;4.60;;;2.77;;
4464;SDS011;2245;48.136;13.428;2023-04-12T01:16:45;5.60;;;2.87;;
4464;SDS011;2245;48.136;13.428;2023-04-12T01:19:20;3.00;;;2.10;;
4464;SDS011;2245;48.136;13.428;2023-04-12T01:22:05;4.40;;;2.67;;
4464;SDS011;2245;48.136;13.428;2023-04-12T01:24:41;3.87;;;2.67;;
4464;SDS011;2245;48.136;13.428;2023-04-12T01:27:20;3.07;;;2.20;;
4464;SDS011;2245;48.136;13.428;2023-04-12T01:29:57;3.50;;;2.53;;
4464;SDS011;2245;48.136;13.428;2023-04-12T01:32:25;9.13;;;1.93;;
4464;SDS011;2245;48.136;13.428;2023-04-12T01:34:53;3.60;;;2.20;;
4464;SDS011;2245;48.136;13.428;2023-04-12T01:37:20;2.77;;;2.43;;
4464;SDS011;2245;48.136;13.428;2023-04-12T01:39:48;2.73;;;2.53;;
4464;SDS011;2245;48.136;13.428;2023-04-12T01:42:17;5.60;;;2.40;;
4464;SDS011;2245;48.136;13.428;2023-04-12T01:44:46;5.20;;;2.10;;
4464;SDS011;2245;48.136;13.428;2023-04-12T01:47:13;7.57;;;3.27;;
4464;SDS011;2245;48.136;13.428;2023-04-12T01:49:42;3.43;;;3.00;;
4464;SDS011;2245;48.136;13.428;2023-04-12T01:52:17;5.77;;;2.73;;
4464;SDS011;2245;48.136;13.428;2023-04-12T01:54:45;3.47;;;2.23;;
4464;SDS011;2245;48.136;13.428;2023-04-12T01:57:15;2.40;;;2.20;;
4464;SDS011;2245;48.136;13.428;2023-04-12T01:59:43;11.30;;;2.57;;
4464;SDS011;2245;48.136;13.428;2023-04-12T02:02:12;3.60;;;2.70;;
4464;SDS011;2245;48.136;13.428;2023-04-12T02:04:40;3.30;;;2.60;;
4464;SDS011;2245;48.136;13.428;2023-04-12T02:07:07;3.53;;;2.43;;
4464;SDS011;2245;48.136;13.428;2023-04-12T02:09:35;4.40;;;2.77;;
4464;SDS011;2245;48.136;13.428;2023-04-12T02:12:03;3.80;;;2.37;;
4464;SDS011;2245;48.136;13.428;2023-04-12T02:14:30;10.70;;;3.13;;
4464;SDS011;2245;48.136;13.428;2023-04-12T02:16:59;3.27;;;2.60;;
4464;SDS011;2245;48.136;13.428;2023-04-12T02:19:28;3.90;;;2.63;;
4464;SDS011;2245;48.136;13.428;2023-04-12T02:21:55;4.30;;;2.63;;
4464;SDS011;2245;48.136;13.428;2023-04-12T02:24:22;5.20;;;2.40;;
4464;SDS011;2245;48.136;13.428;2023-04-12T02:26:49;3.50;;;2.63;;
4464;SDS011;2245;48.136;13.428;2023-04-12T02:29:16;4.47;;;3.13;;
4464;SDS011;2245;48.136;13.428;2023-04-12T02:31:42;5.13;;;2.40;;
4464;SDS011;2245;48.136;13.428;2023-04-12T02:34:11;2.53;;;1.87;;
4464;SDS011;2245;48.136;13.428;2023-04-12T02:36:44;8.07;;;1.60;;
4464;SDS011;2245;48.136;13.428;2023-04-12T02:39:12;3.13;;;2.60;;
4464;SDS011;2245;48.136;13.428;2023-04-12T02:41:42;4.33;;;2.50;;
4464;SDS011;2245;48.136;13.428;2023-04-12T02:44:09;3.57;;;2.70;;
4464;SDS011;2245;48.136;13.428;2023-04-12T02:46:36;3.03;;;2.10;;
4464;SDS011;2245;48.136;13.428;2023-04-12T02:49:03;3.97;;;2.17;;
4464;SDS011;2245;48.136;13.428;2023-04-12T02:51:31;2.43;;;2.07;;
4464;SDS011;2245;48.136;13.428;2023-04-12T02:53:59;3.93;;;2.60;;
4464;SDS011;2245;48.136;13.428;2023-04-12T02:56:26;5.43;;;2.17;;
4464;SDS011;2245;48.136;13.428;2023-04-12T02:58:54;13.10;;;2.90;;
4464;SDS011;2245;48.136;13.428;2023-04-12T03:01:21;4.40;;;2.53;;
4464;SDS011;2245;48.136;13.428;2023-04-12T03:03:47;5.53;;;3.00;;
4464;SDS011;2245;48.136;13.428;2023-04-12T03:06:14;4.10;;;2.10;;
4464;SDS011;2245;48.136;13.428;2023-04-12T03:08:43;2.20;;;1.67;;
4464;SDS011;2245;48.136;13.428;2023-04-12T03:11:10;8.10;;;2.70;;
4464;SDS011;2245;48.136;13.428;2023-04-12T03:13:36;2.63;;;2.43;;
4464;SDS011;2245;48.136;13.428;2023-04-12T03:16:18;2.30;;;2.10;;
4464;SDS011;2245;48.136;13.428;2023-04-12T03:18:46;4.80;;;2.73;;
4464;SDS011;2245;48.136;13.428;2023-04-12T03:21:14;4.93;;;1.93;;
4464;SDS011;2245;48.136;13.428;2023-04-12T03:23:42;2.60;;;2.00;;
4464;SDS011;2245;48.136;13.428;2023-04-12T03:26:09;4.43;;;2.20;;
4464;SDS011;2245;48.136;13.428;2023-04-12T03:28:36;2.30;;;2.10;;
4464;SDS011;2245;48.136;13.428;2023-04-12T03:31:03;2.80;;;2.60;;
4464;SDS011;2245;48.136;13.428;2023-04-12T03:33:30;5.63;;;3.57;;
4464;SDS011;2245;48.136;13.428;2023-04-12T03:35:57;7.13;;;2.63;;
4464;SDS011;2245;48.136;13.428;2023-04-12T03:38:25;6.43;;;3.20;;
4464;SDS011;2245;48.136;13.428;2023-04-12T03:40:53;5.47;;;2.20;;
4464;SDS011;2245;48.136;13.428;2023-04-12T03:43:20;9.97;;;2.50;;
4464;SDS011;2245;48.136;13.428;2023-04-12T03:45:47;3.73;;;2.23;;
4464;SDS011;2245;48.136;13.428;2023-04-12T03:48:14;3.60;;;2.63;;
4464;SDS011;2245;48.136;13.428;2023-04-12T03:50:41;2.63;;;2.03;;
4464;SDS011;2245;48.136;13.428;2023-04-12T03:53:09;11.60;;;3.63;;
4464;SDS011;2245;48.136;13.428;2023-04-12T03:55:36;4.57;;;3.00;;
4464;SDS011;2245;48.136;13.428;2023-04-12T03:58:04;2.77;;;2.27;;
4464;SDS011;2245;48.136;13.428;2023-04-12T04:00:31;7.00;;;4.17;;
4464;SDS011;2245;48.136;13.428;2023-04-12T04:02:58;2.70;;;2.50;;
4464;SDS011;2245;48.136;13.428;2023-04-12T04:05:27;4.33;;;3.03;;
4464;SDS011;2245;48.136;13.428;2023-04-12T04:07:54;5.43;;;2.67;;
4464;SDS011;2245;48.136;13.428;2023-04-12T04:10:21;3.87;;;2.57;;
4464;SDS011;2245;48.136;13.428;2023-04-12T04:12:47;4.77;;;3.37;;
4464;SDS011;2245;48.136;13.428;2023-04-12T04:15:16;3.80;;;2.70;;
4464;SDS011;2245;48.136;13.428;2023-04-12T04:17:42;5.03;;;2.90;;
4464;SDS011;2245;48.136;13.428;2023-04-12T04:20:11;6.10;;;2.60;;
4464;SDS011;2245;48.136;13.428;2023-04-12T04:22:38;8.27;;;2.93;;
4464;SDS011;2245;48.136;13.428;2023-04-12T04:25:06;4.00;;;2.83;;
4464;SDS011;2245;48.136;13.428;2023-04-12T04:27:34;16.20;;;3.80;;
4464;SDS011;2245;48.136;13.428;2023-04-12T04:30:02;3.63;;;3.23;;
4464;SDS011;2245;48.136;13.428;2023-04-12T04:32:31;5.70;;;3.50;;
4464;SDS011;2245;48.136;13.428;2023-04-12T04:34:58;9.63;;;3.37;;
4464;SDS011;2245;48.136;13.428;2023-04-12T04:37:26;7.77;;;4.33;;
4464;SDS011;2245;48.136;13.428;2023-04-12T04:39:54;8.30;;;3.57;;
4464;SDS011;2245;48.136;13.428;2023-04-12T04:42:21;5.93;;;4.10;;
4464;SDS011;2245;48.136;13.428;2023-04-12T04:44:48;6.50;;;3.00;;
4464;SDS011;2245;48.136;13.428;2023-04-12T04:47:16;6.70;;;3.20;;
4464;SDS011;2245;48.136;13.428;2023-04-12T04:49:44;7.30;;;3.50;;
4464;SDS011;2245;48.136;13.428;2023-04-12T04:52:12;4.57;;;2.87;;
4464;SDS011;2245;48.136;13.428;2023-04-12T04:54:40;4.33;;;2.67;;
4464;SDS011;2245;48.136;13.428;2023-04-12T04:57:06;6.00;;;3.03;;
4464;SDS011;2245;48.136;13.428;2023-04-12T04:59:35;8.70;;;2.90;;
4464;SDS011;2245;48.136;13.428;2023-04-12T05:02:02;3.20;;;2.83;;
4464;SDS011;2245;48.136;13.428;2023-04-12T05:04:29;9.50;;;3.40;;
4464;SDS011;2245;48.136;13.428;2023-04-12T05:06:57;8.10;;;3.00;;
4464;SDS011;2245;48.136;13.428;2023-04-12T05:09:24;6.57;;;3.00;;
4464;SDS011;2245;48.136;13.428;2023-04-12T05:11:51;4.03;;;2.97;;
4464;SDS011;2245;48.136;13.428;2023-04-12T05:14:18;9.20;;;4.10;;
4464;SDS011;2245;48.136;13.428;2023-04-12T05:16:45;9.60;;;3.40;;
4464;SDS011;2245;48.136;13.428;2023-04-12T05:19:12;3.17;;;2.87;;
4464;SDS011;2245;48.136;13.428;2023-04-12T05:21:39;4.87;;;3.90;;
4464;SDS011;2245;48.136;13.428;2023-04-12T05:24:07;8.80;;;5.07;;
4464;SDS011;2245;48.136;13.428;2023-04-12T05:26:34;9.60;;;3.80;;
4464;SDS011;2245;48.136;13.428;2023-04-12T05:29:01;7.10;;;3.50;;
4464;SDS011;2245;48.136;13.428;2023-04-12T05:31:28;8.77;;;3.37;;
4464;SDS011;2245;48.136;13.428;2023-04-12T05:33:55;7.67;;;4.10;;
4464;SDS011;2245;48.136;13.428;2023-04-12T05:36:22;5.70;;;3.80;;
4464;SDS011;2245;48.136;13.428;2023-04-12T05:38:48;10.30;;;3.63;;
4464;SDS011;2245;48.136;13.428;2023-04-12T05:41:17;6.43;;;3.43;;
4464;SDS011;2245;48.136;13.428;2023-04-12T05:43:44;5.80;;;2.80;;
4464;SDS011;2245;48.136;13.428;2023-04-12T05:46:11;8.90;;;3.67;;
4464;SDS011;2245;48.136;13.428;2023-04-12T05:48:38;6.40;;;4.07;;
4464;SDS011;2245;48.136;13.428;2023-04-12T05:51:05;6.10;;;4.10;;
4464;SDS011;2245;48.136;13.428;2023-04-12T05:53:32;7.20;;;4.10;;
4464;SDS011;2245;48.136;13.428;2023-04-12T05:55:59;4.90;;;2.87;;
4464;SDS011;2245;48.136;13.428;2023-04-12T05:58:27;9.40;;;3.40;;
4464;SDS011;2245;48.136;13.428;2023-04-12T06:00:54;7.70;;;2.80;;
4464;SDS011;2245;48.136;13.428;2023-04-12T06:03:21;10.57;;;3.47;;
4464;SDS011;2245;48.136;13.428;2023-04-12T06:05:49;4.87;;;2.60;;
4464;SDS011;2245;48.136;13.428;2023-04-12T06:08:17;4.70;;;2.40;;
4464;SDS011;2245;48.136;13.428;2023-04-12T06:10:44;6.70;;;3.23;;
4464;SDS011;2245;48.136;13.428;2023-04-12T06:13:11;16.43;;;4.83;;
4464;SDS011;2245;48.136;13.428;2023-04-12T06:15:40;4.97;;;3.70;;
4464;SDS011;2245;48.136;13.428;2023-04-12T06:18:06;17.40;;;4.50;;
4464;SDS011;2245;48.136;13.428;2023-04-12T06:20:33;12.83;;;3.70;;
4464;SDS011;2245;48.136;13.428;2023-04-12T06:23:01;8.43;;;3.13;;
4464;SDS011;2245;48.136;13.428;2023-04-12T06:25:27;7.03;;;3.40;;
4464;SDS011;2245;48.136;13.428;2023-04-12T06:27:55;8.40;;;3.37;;
4464;SDS011;2245;48.136;13.428;2023-04-12T06:30:21;7.53;;;3.20;;
4464;SDS011;2245;48.136;13.428;2023-04-12T06:32:50;17.60;;;3.43;;
4464;SDS011;2245;48.136;13.428;2023-04-12T06:35:16;3.63;;;2.83;;
4464;SDS011;2245;48.136;13.428;2023-04-12T06:37:44;17.27;;;2.97;;
4464;SDS011;2245;48.136;13.428;2023-04-12T06:40:11;5.30;;;2.67;;
4464;SDS011;2245;48.136;13.428;2023-04-12T06:42:38;2.40;;;1.77;;
4464;SDS011;2245;48.136;13.428;2023-04-12T06:45:05;6.40;;;4.50;;
4464;SDS011;2245;48.136;13.428;2023-04-12T06:47:32;35.10;;;17.20;;
4464;SDS011;2245;48.136;13.428;2023-04-12T06:50:01;70.47;;;34.50;;
4464;SDS011;2245;48.136;13.428;2023-04-12T06:52:28;56.90;;;21.07;;
4464;SDS011;2245;48.136;13.428;2023-04-12T06:54:55;25.73;;;14.30;;
4464;SDS011;2245;48.136;13.428;2023-04-12T06:57:22;28.73;;;14.67;;
4464;SDS011;2245;48.136;13.428;2023-04-12T06:59:50;28.43;;;13.50;;
4464;SDS011;2245;48.136;13.428;2023-04-12T07:02:17;7.00;;;3.23;;
4464;SDS011;2245;48.136;13.428;2023-04-12T07:04:43;10.57;;;5.63;;
4464;SDS011;2245;48.136;13.428;2023-04-12T07:07:12;15.87;;;5.80;;
4464;SDS011;2245;48.136;13.428;2023-04-12T07:09:39;19.57;;;4.70;;
4464;SDS011;2245;48.136;13.428;2023-04-12T07:12:07;9.13;;;3.90;;
4464;SDS011;2245;48.136;13.428;2023-04-12T07:14:34;6.73;;;2.60;;
4464;SDS011;2245;48.136;13.428;2023-04-12T07:17:00;2.87;;;2.37;;
4464;SDS011;2245;48.136;13.428;2023-04-12T07:19:27;10.00;;;1.97;;
4464;SDS011;2245;48.136;13.428;2023-04-12T07:21:55;11.13;;;3.20;;
4464;SDS011;2245;48.136;13.428;2023-04-12T07:24:23;6.60;;;2.10;;
4464;SDS011;2245;48.136;13.428;2023-04-12T07:26:51;5.73;;;2.90;;
4464;SDS011;2245;48.136;13.428;2023-04-12T07:29:18;8.33;;;2.90;;
4464;SDS011;2245;48.136;13.428;2023-04-12T07:31:45;2.43;;;1.97;;
4464;SDS011;2245;48.136;13.428;2023-04-12T07:34:12;12.90;;;3.40;;
4464;SDS011;2245;48.136;13.428;2023-04-12T07:36:39;7.07;;;3.07;;
4464;SDS011;2245;48.136;13.428;2023-04-12T07:39:08;8.07;;;3.47;;
4464;SDS011;2245;48.136;13.428;2023-04-12T07:41:37;6.70;;;2.33;;
4464;SDS011;2245;48.136;13.428;2023-04-12T07:44:06;25.20;;;22.97;;
4464;SDS011;2245;48.136;13.428;2023-04-12T07:46:33;14.87;;;13.20;;
4464;SDS011;2245;48.136;13.428;2023-04-12T07:49:00;5.87;;;3.77;;
4464;SDS011;2245;48.136;13.428;2023-04-12T07:51:27;20.33;;;5.23;;
4464;SDS011;2245;48.136;13.428;2023-04-12T07:53:55;9.20;;;3.70;;
4464;SDS011;2245;48.136;13.428;2023-04-12T07:56:21;16.23;;;5.00;;
4464;SDS011;2245;48.136;13.428;2023-04-12T07:58:50;6.80;;;3.77;;
4464;SDS011;2245;48.136;13.428;2023-04-12T08:01:17;7.40;;;3.20;;
4464;SDS011;2245;48.136;13.428;2023-04-12T08:03:43;11.40;;;3.27;;
4464;SDS011;2245;48.136;13.428;2023-04-12T08:06:10;5.60;;;2.80;;
4464;SDS011;2245;48.136;13.428;2023-04-12T08:08:37;4.40;;;2.40;;
4464;SDS011;2245;48.136;13.428;2023-04-12T08:11:04;11.77;;;3.47;;
4464;SDS011;2245;48.136;13.428;2023-04-12T08:13:31;13.63;;;3.57;;
4464;SDS011;2245;48.136;13.428;2023-04-12T08:16:00;13.80;;;3.20;;
4464;SDS011;2245;48.136;13.428;2023-04-12T08:18:27;33.53;;;3.60;;
4464;SDS011;2245;48.136;13.428;2023-04-12T08:20:54;6.27;;;3.47;;
4464;SDS011;2245;48.136;13.428;2023-04-12T08:23:21;9.27;;;4.07;;
4464;SDS011;2245;48.136;13.428;2023-04-12T08:25:48;5.53;;;2.77;;
4464;SDS011;2245;48.136;13.428;2023-04-12T08:28:14;13.53;;;3.73;;
4464;SDS011;2245;48.136;13.428;2023-04-12T08:30:42;6.07;;;3.40;;
4464;SDS011;2245;48.136;13.428;2023-04-12T08:33:10;8.53;;;3.23;;
4464;SDS011;2245;48.136;13.428;2023-04-12T08:35:37;4.83;;;2.60;;
4464;SDS011;2245;48.136;13.428;2023-04-12T08:38:05;7.67;;;3.00;;
4464;SDS011;2245;48.136;13.428;2023-04-12T08:40:32;12.80;;;3.60;;
4464;SDS011;2245;48.136;13.428;2023-04-12T08:43:00;9.50;;;2.70;;
4464;SDS011;2245;48.136;13.428;2023-04-12T08:45:28;20.90;;;3.50;;
4464;SDS011;2245;48.136;13.428;2023-04-12T08:47:55;12.80;;;4.90;;
4464;SDS011;2245;48.136;13.428;2023-04-12T08:50:24;5.60;;;3.33;;
4464;SDS011;2245;48.136;13.428;2023-04-12T08:52:52;4.20;;;1.90;;
4464;SDS011;2245;48.136;13.428;2023-04-12T08:55:18;8.23;;;3.13;;
4464;SDS011;2245;48.136;13.428;2023-04-12T08:57:45;3.40;;;2.53;;
4464;SDS011;2245;48.136;13.428;2023-04-12T09:00:13;5.57;;;2.13;;
4464;SDS011;2245;48.136;13.428;2023-04-12T09:02:41;4.77;;;2.10;;
4464;SDS011;2245;48.136;13.428;2023-04-12T09:05:11;5.57;;;1.90;;
4464;SDS011;2245;48.136;13.428;2023-04-12T09:07:39;3.87;;;1.70;;
4464;SDS011;2245;48.136;13.428;2023-04-12T09:10:07;6.03;;;2.60;;
4464;SDS011;2245;48.136;13.428;2023-04-12T09:12:34;4.77;;;1.93;;
4464;SDS011;2245;48.136;13.428;2023-04-12T09:15:05;2.40;;;1.40;;
4464;SDS011;2245;48.136;13.428;2023-04-12T09:17:34;5.90;;;1.50;;
4464;SDS011;2245;48.136;13.428;2023-04-12T09:20:07;3.73;;;2.20;;
4464;SDS011;2245;48.136;13.428;2023-04-12T09:22:51;21.00;;;2.40;;
4464;SDS011;2245;48.136;13.428;2023-04-12T09:25:34;1.60;;;1.50;;
4464;SDS011;2245;48.136;13.428;2023-04-12T09:28:03;11.93;;;1.97;;
4464;SDS011;2245;48.136;13.428;2023-04-12T09:30:33;15.50;;;2.63;;
4464;SDS011;2245;48.136;13.428;2023-04-12T09:33:09;2.40;;;1.33;;
4464;SDS011;2245;48.136;13.428;2023-04-12T09:35:37;5.33;;;1.63;;
4464;SDS011;2245;48.136;13.428;2023-04-12T09:38:07;4.10;;;1.17;;
4464;SDS011;2245;48.136;13.428;2023-04-12T09:40:35;8.10;;;1.10;;
4464;SDS011;2245;48.136;13.428;2023-04-12T09:43:02;1.27;;;1.00;;
4464;SDS011;2245;48.136;13.428;2023-04-12T09:45:30;2.80;;;1.33;;
4464;SDS011;2245;48.136;13.428;2023-04-12T09:47:58;8.23;;;1.40;;
4464;SDS011;2245;48.136;13.428;2023-04-12T09:50:26;2.37;;;2.13;;
4464;SDS011;2245;48.136;13.428;2023-04-12T09:52:54;6.90;;;1.23;;
4464;SDS011;2245;48.136;13.428;2023-04-12T09:55:24;2.00;;;1.80;;
4464;SDS011;2245;48.136;13.428;2023-04-12T09:57:52;3.07;;;1.83;;
4464;SDS011;2245;48.136;13.428;2023-04-12T10:00:21;4.20;;;1.80;;
4464;SDS011;2245;48.136;13.428;2023-04-12T10:02:51;1.70;;;1.20;;
4464;SDS011;2245;48.136;13.428;2023-04-12T10:05:19;3.70;;;2.40;;
4464;SDS011;2245;48.136;13.428;2023-04-12T10:07:47;2.20;;;1.80;;
4464;SDS011;2245;48.136;13.428;2023-04-12T10:10:15;6.73;;;2.77;;
4464;SDS011;2245;48.136;13.428;2023-04-12T10:12:44;4.13;;;3.67;;
4464;SDS011;2245;48.136;13.428;2023-04-12T10:15:12;8.40;;;1.07;;
4464;SDS011;2245;48.136;13.428;2023-04-12T10:17:41;1.47;;;1.20;;
4464;SDS011;2245;48.136;13.428;2023-04-12T10:20:09;7.73;;;1.37;;
4464;SDS011;2245;48.136;13.428;2023-04-12T10:22:37;1.33;;;1.03;;
4464;SDS011;2245;48.136;13.428;2023-04-12T10:25:08;1.00;;;0.70;;
4464;SDS011;2245;48.136;13.428;2023-04-12T10:27:36;5.40;;;1.70;;
4464;SDS011;2245;48.136;13.428;2023-04-12T10:30:19;0.80;;;0.67;;
4464;SDS011;2245;48.136;13.428;2023-04-12T10:32:47;2.00;;;1.10;;
4464;SDS011;2245;48.136;13.428;2023-04-12T10:35:15;1.30;;;1.20;;
4464;SDS011;2245;48.136;13.428;2023-04-12T10:37:57;0.90;;;0.90;;
4464;SDS011;2245;48.136;13.428;2023-04-12T10:40:25;5.43;;;1.43;;
4464;SDS011;2245;48.136;13.428;2023-04-12T10:45:51;1.73;;;1.50;;
4464;SDS011;2245;48.136;13.428;2023-04-12T10:48:28;5.33;;;3.27;;
4464;SDS011;2245;48.136;13.428;2023-04-12T10:51:12;1.17;;;1.07;;
4464;SDS011;2245;48.136;13.428;2023-04-12T10:53:47;5.27;;;4.37;;
4464;SDS011;2245;48.136;13.428;2023-04-12T10:59:03;1.43;;;1.33;;
4464;SDS011;2245;48.136;13.428;2023-04-12T11:01:32;3.87;;;1.53;;
4464;SDS011;2245;48.136;13.428;2023-04-12T11:04:10;1.00;;;0.83;;
4464;SDS011;2245;48.136;13.428;2023-04-12T11:06:54;11.10;;;6.77;;
4464;SDS011;2245;48.136;13.428;2023-04-12T11:09:22;9.47;;;5.27;;
4464;SDS011;2245;48.136;13.428;2023-04-12T11:11:50;12.37;;;6.70;;
4464;SDS011;2245;48.136;13.428;2023-04-12T11:14:20;21.63;;;12.13;;
4464;SDS011;2245;48.136;13.428;2023-04-12T11:19:49;7.83;;;4.77;;
4464;SDS011;2245;48.136;13.428;2023-04-12T11:22:18;3.83;;;2.33;;
4464;SDS011;2245;48.136;13.428;2023-04-12T11:24:47;1.90;;;1.40;;
4464;SDS011;2245;48.136;13.428;2023-04-12T11:27:14;4.80;;;1.20;;
4464;SDS011;2245;48.136;13.428;2023-04-12T11:29:42;1.70;;;1.57;;
4464;SDS011;2245;48.136;13.428;2023-04-12T11:32:10;2.47;;;1.20;;
4464;SDS011;2245;48.136;13.428;2023-04-12T11:34:40;0.63;;;0.63;;
4464;SDS011;2245;48.136;13.428;2023-04-12T11:37:08;1.60;;;1.20;;
4464;SDS011;2245;48.136;13.428;2023-04-12T11:39:36;1.27;;;0.80;;
4464;SDS011;2245;48.136;13.428;2023-04-12T11:42:05;0.80;;;0.80;;
4464;SDS011;2245;48.136;13.428;2023-04-12T11:44:33;1.03;;;0.70;;
4464;SDS011;2245;48.136;13.428;2023-04-12T11:47:00;1.40;;;1.00;;
4464;SDS011;2245;48.136;13.428;2023-04-12T11:49:27;0.70;;;0.57;;
4464;SDS011;2245;48.136;13.428;2023-04-12T11:52:02;1.73;;;0.80;;
4464;SDS011;2245;48.136;13.428;2023-04-12T11:54:30;0.80;;;0.80;;
4464;SDS011;2245;48.136;13.428;2023-04-12T11:56:58;2.20;;;1.33;;
4464;SDS011;2245;48.136;13.428;2023-04-12T11:59:30;1.23;;;1.10;;
4464;SDS011;2245;48.136;13.428;2023-04-12T12:01:57;1.57;;;0.73;;
4464;SDS011;2245;48.136;13.428;2023-04-12T12:04:25;2.60;;;1.33;;
4464;SDS011;2245;48.136;13.428;2023-04-12T12:06:54;2.00;;;0.70;;
4464;SDS011;2245;48.136;13.428;2023-04-12T12:09:22;1.23;;;0.90;;
4464;SDS011;2245;48.136;13.428;2023-04-12T12:11:50;0.60;;;0.60;;
4464;SDS011;2245;48.136;13.428;2023-04-12T12:14:17;0.93;;;0.70;;
4464;SDS011;2245;48.136;13.428;2023-04-12T12:16:50;62.47;;;7.10;;
4464;SDS011;2245;48.136;13.428;2023-04-12T12:19:25;1.70;;;0.80;;
4464;SDS011;2245;48.136;13.428;2023-04-12T12:21:53;2.20;;;0.80;;
4464;SDS011;2245;48.136;13.428;2023-04-12T12:24:22;0.67;;;0.67;;
4464;SDS011;2245;48.136;13.428;2023-04-12T12:26:49;14.77;;;1.00;;
4464;SDS011;2245;48.136;13.428;2023-04-12T12:29:16;20.03;;;1.73;;
4464;SDS011;2245;48.136;13.428;2023-04-12T12:31:46;0.90;;;0.60;;
4464;SDS011;2245;48.136;13.428;2023-04-12T12:34:13;1.13;;;1.03;;
4464;SDS011;2245;48.136;13.428;2023-04-12T12:36:43;2.57;;;0.90;;
4464;SDS011;2245;48.136;13.428;2023-04-12T12:39:20;1.17;;;0.63;;
4464;SDS011;2245;48.136;13.428;2023-04-12T12:41:53;5.90;;;1.00;;
4464;SDS011;2245;48.136;13.428;2023-04-12T12:44:20;9.40;;;1.43;;
4464;SDS011;2245;48.136;13.428;2023-04-12T12:46:47;11.43;;;1.10;;
4464;SDS011;2245;48.136;13.428;2023-04-12T12:49:14;3.93;;;1.40;;
4464;SDS011;2245;48.136;13.428;2023-04-12T12:51:41;1.20;;;1.10;;
4464;SDS011;2245;48.136;13.428;2023-04-12T12:54:08;5.80;;;0.67;;
4464;SDS011;2245;48.136;13.428;2023-04-12T12:56:35;6.83;;;0.60;;
4464;SDS011;2245;48.136;13.428;2023-04-12T12:59:04;2.17;;;0.60;;
4464;SDS011;2245;48.136;13.428;2023-04-12T13:01:31;1.07;;;0.50;;
4464;SDS011;2245;48.136;13.428;2023-04-12T13:03:57;0.90;;;0.60;;
4464;SDS011;2245;48.136;13.428;2023-04-12T13:06:24;1.47;;;0.70;;
4464;SDS011;2245;48.136;13.428;2023-04-12T13:08:52;0.67;;;0.67;;
4464;SDS011;2245;48.136;13.428;2023-04-12T13:11:20;1.13;;;0.80;;
4464;SDS011;2245;48.136;13.428;2023-04-12T13:13:47;16.43;;;3.50;;
4464;SDS011;2245;48.136;13.428;2023-04-12T13:16:15;1.23;;;1.13;;
4464;SDS011;2245;48.136;13.428;2023-04-12T13:18:42;2.13;;;1.27;;
4464;SDS011;2245;48.136;13.428;2023-04-12T13:21:09;3.50;;;1.00;;
4464;SDS011;2245;48.136;13.428;2023-04-12T13:23:36;6.53;;;1.50;;
4464;SDS011;2245;48.136;13.428;2023-04-12T13:26:03;9.07;;;1.37;;
4464;SDS011;2245;48.136;13.428;2023-04-12T13:28:30;0.90;;;0.70;;
4464;SDS011;2245;48.136;13.428;2023-04-12T13:30:57;7.03;;;1.30;;
4464;SDS011;2245;48.136;13.428;2023-04-12T13:33:25;2.30;;;1.90;;
4464;SDS011;2245;48.136;13.428;2023-04-12T13:35:52;1.90;;;1.30;;
4464;SDS011;2245;48.136;13.428;2023-04-12T13:38:19;1.50;;;1.03;;
4464;SDS011;2245;48.136;13.428;2023-04-12T13:40:46;2.63;;;1.10;;
4464;SDS011;2245;48.136;13.428;2023-04-12T13:43:13;1.37;;;1.10;;
4464;SDS011;2245;48.136;13.428;2023-04-12T13:45:40;2.10;;;1.13;;
4464;SDS011;2245;48.136;13.428;2023-04-12T13:48:07;1.20;;;1.07;;
4464;SDS011;2245;48.136;13.428;2023-04-12T13:50:35;1.80;;;1.70;;
4464;SDS011;2245;48.136;13.428;2023-04-12T13:53:02;16.83;;;2.90;;
4464;SDS011;2245;48.136;13.428;2023-04-12T13:55:29;1.90;;;1.17;;
4464;SDS011;2245;48.136;13.428;2023-04-12T13:57:56;2.07;;;1.17;;
4464;SDS011;2245;48.136;13.428;2023-04-12T14:00:23;3.17;;;1.27;;
4464;SDS011;2245;48.136;13.428;2023-04-12T14:02:50;1.80;;;1.13;;
4464;SDS011;2245;48.136;13.428;2023-04-12T14:05:17;4.13;;;1.60;;
4464;SDS011;2245;48.136;13.428;2023-04-12T14:07:45;2.40;;;0.90;;
4464;SDS011;2245;48.136;13.428;2023-04-12T14:10:13;2.50;;;1.10;;
4464;SDS011;2245;48.136;13.428;2023-04-12T14:12:40;0.90;;;0.90;;
4464;SDS011;2245;48.136;13.428;2023-04-12T14:15:07;2.07;;;0.97;;
4464;SDS011;2245;48.136;13.428;2023-04-12T14:17:35;1.33;;;1.07;;
4464;SDS011;2245;48.136;13.428;2023-04-12T14:20:02;16.53;;;1.67;;
4464;SDS011;2245;48.136;13.428;2023-04-12T14:22:30;8.60;;;1.20;;
4464;SDS011;2245;48.136;13.428;2023-04-12T14:24:59;1.10;;;1.00;;
4464;SDS011;2245;48.136;13.428;2023-04-12T14:27:25;1.43;;;1.10;;
4464;SDS011;2245;48.136;13.428;2023-04-12T14:29:52;5.30;;;0.97;;
4464;SDS011;2245;48.136;13.428;2023-04-12T14:32:20;0.93;;;0.90;;
4464;SDS011;2245;48.136;13.428;2023-04-12T14:34:47;6.03;;;1.57;;
4464;SDS011;2245;48.136;13.428;2023-04-12T14:37:14;3.40;;;1.47;;
4464;SDS011;2245;48.136;13.428;2023-04-12T14:39:41;0.80;;;0.80;;
4464;SDS011;2245;48.136;13.428;2023-04-12T14:42:10;6.00;;;1.50;;
4464;SDS011;2245;48.136;13.428;2023-04-12T14:44:37;0.80;;;0.80;;
4464;SDS011;2245;48.136;13.428;2023-04-12T14:47:04;13.57;;;2.80;;
4464;SDS011;2245;48.136;13.428;2023-04-12T14:49:30;1.53;;;0.87;;
4464;SDS011;2245;48.136;13.428;2023-04-12T14:51:57;2.47;;;1.00;;
4464;SDS011;2245;48.136;13.428;2023-04-12T14:54:24;2.10;;;0.87;;
4464;SDS011;2245;48.136;13.428;2023-04-12T14:56:51;0.90;;;0.70;;
4464;SDS011;2245;48.136;13.428;2023-04-12T14:59:19;4.93;;;3.33;;
4464;SDS011;2245;48.136;13.428;2023-04-12T15:01:46;1.87;;;1.20;;
4464;SDS011;2245;48.136;13.428;2023-04-12T15:04:13;1.30;;;1.10;;
4464;SDS011;2245;48.136;13.428;2023-04-12T15:06:40;6.73;;;1.83;;
4464;SDS011;2245;48.136;13.428;2023-04-12T15:09:08;0.70;;;0.70;;
4464;SDS011;2245;48.136;13.428;2023-04-12T15:11:36;2.83;;;0.80;;
4464;SDS011;2245;48.136;13.428;2023-04-12T15:14:03;1.17;;;1.00;;
4464;SDS011;2245;48.136;13.428;2023-04-12T15:16:32;2.03;;;1.43;;